Time;durP1;ratioP1;P1;durP2;ratioP2;P2;SDS_P1;SDS_P2;PMS_P1;PMS_P2;Temp;Humidity;BMP_temperature;BMP_pressure;BME280_temperature;BME280_humidity;BME280_pressure;Samples;Min_cycle;Max_cycle;Signal;HPM_P1;HPM_P2
2022/01/04 00:02:14;;;;;;;5.33;1.82;;;;;;;6.84;94.70;98269.38;1620808;85;21114;-79
2022/01/04 00:04:40;;;;;;;2.87;2.17;;;;;;;6.83;94.77;98287.80;1664248;85;20992;-76
2022/01/04 00:07:07;;;;;;;4.42;2.60;;;;;;;6.82;94.84;98280.03;1682308;85;21049;-71
2022/01/04 00:09:40;;;;;;;2.12;1.72;;;;;;;6.77;95.27;98293.37;1682303;85;21049;-77
2022/01/04 00:14:55;;;;;;;5.03;1.67;;;;;;;6.74;95.79;98285.35;1718380;82;21034;-79
2022/01/04 00:17:21;;;;;;;2.37;2.17;;;;;;;6.74;96.14;98285.87;1714948;81;21071;-84
2022/01/04 00:19:47;;;;;;;2.70;1.62;;;;;;;6.73;96.55;98301.10;1739580;81;22267;-79
2022/01/04 00:22:15;;;;;;;1.90;1.55;;;;;;;6.71;96.77;98305.11;1731839;82;21689;-82
2022/01/04 00:24:43;;;;;;;4.35;1.32;;;;;;;6.67;96.96;98295.98;1710976;82;21487;-79
2022/01/04 00:27:11;;;;;;;1.30;1.10;;;;;;;6.62;97.30;98290.08;1721140;82;20962;-81
2022/01/04 00:29:41;;;;;;;0.90;0.90;;;;;;;6.60;97.77;98292.75;1736668;81;21012;-79
2022/01/04 00:32:10;;;;;;;0.93;0.88;;;;;;;6.59;98.17;98303.95;1757179;81;20967;-81
2022/01/04 00:34:37;;;;;;;1.15;0.90;;;;;;;6.58;98.36;98297.00;1744813;81;21068;-81
2022/01/04 00:37:04;;;;;;;1.20;1.10;;;;;;;6.59;98.52;98295.95;1702281;83;21035;-80
2022/01/04 00:39:30;;;;;;;1.82;1.20;;;;;;;6.58;98.83;98297.81;1704400;83;21074;-81
2022/01/04 00:42:00;;;;;;;1.52;1.27;;;;;;;6.57;99.25;98312.75;1695850;83;21033;-81
2022/01/04 00:44:27;;;;;;;1.60;1.50;;;;;;;6.52;99.70;98310.85;1663986;85;21078;-83
2022/01/04 00:46:54;;;;;;;2.62;1.20;;;;;;;6.46;100.00;98303.89;1703351;83;20982;-87
2022/01/04 00:49:22;;;;;;;2.25;1.42;;;;;;;6.45;100.00;98306.80;1672801;85;20983;-89
2022/01/04 00:51:51;;;;;;;1.80;1.55;;;;;;;6.43;100.00;98316.40;1689918;83;21072;-87
2022/01/04 00:54:19;;;;;;;1.50;1.10;;;;;;;6.39;100.00;98309.97;1681825;84;21024;-85
2022/01/04 00:56:48;;;;;;;2.22;1.40;;;;;;;6.38;100.00;98320.36;1708135;83;21079;-85
2022/01/04 00:59:17;;;;;;;1.30;1.20;;;;;;;6.38;100.00;98316.36;1645649;85;20986;-90
2022/01/04 01:01:44;;;;;;;1.42;1.32;;;;;;;6.40;100.00;98313.44;1697736;83;21103;-89
2022/01/04 01:04:10;;;;;;;2.02;1.70;;;;;;;6.40;100.00;98317.45;1661231;85;21179;-88
2022/01/04 01:06:38;;;;;;;3.35;1.55;;;;;;;6.40;100.00;98310.77;1640705;85;21009;-86
2022/01/04 01:09:05;;;;;;;5.75;1.95;;;;;;;6.41;100.00;98307.05;1719708;81;21056;-90
2022/01/04 01:11:33;;;;;;;2.67;1.80;;;;;;;6.41;100.00;98307.05;1747139;81;21031;-92
2022/01/04 01:14:02;;;;;;;1.50;1.40;;;;;;;6.41;100.00;98300.38;1742806;81;21502;-89
2022/01/04 01:16:33;;;;;;;1.70;1.60;;;;;;;6.40;100.00;98306.24;1756113;81;25229;-82
2022/01/04 01:19:03;;;;;;;2.10;1.90;;;;;;;6.41;100.00;98313.20;1753504;81;21029;-89
2022/01/04 01:21:31;;;;;;;7.30;2.87;;;;;;;6.42;100.00;98324.16;1733528;81;20949;-89
2022/01/04 01:23:58;;;;;;;3.33;2.77;;;;;;;6.44;100.00;98319.88;1760038;80;21020;-82
2022/01/04 01:26:24;;;;;;;2.85;2.55;;;;;;;6.44;100.00;98308.67;1741900;81;21053;-89
2022/01/04 01:28:52;;;;;;;2.62;2.40;;;;;;;6.41;100.00;98313.20;1716478;81;21166;-81
2022/01/04 01:31:21;;;;;;;2.80;2.60;;;;;;;6.40;100.00;98314.25;1701327;81;20957;-91
2022/01/04 01:33:49;;;;;;;2.37;2.08;;;;;;;6.39;100.00;98319.31;1730273;81;21565;-93
2022/01/04 01:36:19;;;;;;;4.10;2.20;;;;;;;6.38;100.00;98312.91;1760482;81;20949;-82
2022/01/04 01:38:46;;;;;;;3.27;2.50;;;;;;;6.35;100.00;98316.08;1759188;81;20940;-90
2022/01/04 01:41:12;;;;;;;2.83;2.58;;;;;;;6.34;100.00;98314.45;1754457;81;20960;-86
2022/01/04 01:43:39;;;;;;;3.92;2.50;;;;;;;6.32;100.00;98314.73;1730998;82;21042;-82
2022/01/04 01:46:08;;;;;;;2.65;2.10;;;;;;;6.33;100.00;98308.31;1743037;81;21078;-83
2022/01/04 01:48:34;;;;;;;2.92;2.67;;;;;;;6.35;100.00;98317.41;1749955;81;21569;-83
2022/01/04 01:51:02;;;;;;;4.30;2.60;;;;;;;6.34;100.00;98315.80;1716688;81;21102;-87
2022/01/04 01:53:29;;;;;;;6.12;2.60;;;;;;;6.35;100.00;98318.74;1757882;81;21143;-87
2022/01/04 01:55:58;;;;;;;3.83;2.47;;;;;;;6.34;100.00;98323.28;1723512;81;21085;-86
2022/01/04 01:58:25;;;;;;;2.50;2.30;;;;;;;6.35;100.00;98316.08;1729026;81;21042;-83
2022/01/04 02:00:51;;;;;;;2.77;2.33;;;;;;;6.35;100.00;98324.09;1752861;81;21053;-86
2022/01/04 02:03:18;;;;;;;2.80;2.25;;;;;;;6.34;100.00;98335.81;1720081;81;21079;-79
2022/01/04 02:05:45;;;;;;;3.08;2.02;;;;;;;6.31;100.00;98334.48;1736839;81;22319;-85
2022/01/04 02:08:11;;;;;;;2.25;2.08;;;;;;;6.29;100.00;98333.11;1745610;81;21523;-82
2022/01/04 02:10:39;;;;;;;3.83;2.22;;;;;;;6.29;100.00;98331.77;1772464;79;20935;-88
2022/01/04 02:13:06;;;;;;;4.92;2.40;;;;;;;6.29;100.00;98323.23;1729334;81;21649;-85
2022/01/04 02:15:33;;;;;;;2.10;1.92;;;;;;;6.31;100.00;98334.48;1746524;81;21012;-79
2022/01/04 02:18:00;;;;;;;2.17;1.95;;;;;;;6.30;100.00;98346.21;1737796;81;21069;-81
2022/01/04 02:20:27;;;;;;;3.35;2.47;;;;;;;6.29;100.00;98342.45;1749193;81;20944;-82
2022/01/04 02:22:55;;;;;;;2.05;1.95;;;;;;;6.28;100.00;98336.34;1748099;80;20991;-78
2022/01/04 02:25:22;;;;;;;3.72;2.42;;;;;;;6.30;100.00;98335.53;1747408;81;21098;-83
2022/01/04 02:27:48;;;;;;;3.30;2.08;;;;;;;6.32;100.00;98336.62;1716086;81;21044;-86
2022/01/04 02:30:17;;;;;;;3.70;3.33;;;;;;;6.32;100.00;98340.09;1752770;81;21377;-85
2022/01/04 02:32:44;;;;;;;2.85;2.30;;;;;;;6.36;100.00;98342.53;1743693;81;20917;-83
2022/01/04 02:35:12;;;;;;;4.45;2.15;;;;;;;6.35;100.00;98338.77;1749946;81;21588;-82
2022/01/04 02:37:38;;;;;;;3.98;2.42;;;;;;;6.32;100.00;98333.42;1726435;81;21555;-85
2022/01/04 02:40:08;;;;;;;5.10;2.65;;;;;;;6.30;100.00;98335.53;1741299;81;21007;-85
2022/01/04 02:42:36;;;;;;;2.70;2.30;;;;;;;6.29;100.00;98336.59;1712134;81;20940;-81
2022/01/04 02:45:04;;;;;;;2.90;2.33;;;;;;;6.30;100.00;98340.06;1763383;81;21028;-82
2022/01/04 02:47:30;;;;;;;4.50;2.52;;;;;;;6.31;100.00;98343.83;1759540;80;21028;-91
2022/01/04 02:49:58;;;;;;;2.72;2.30;;;;;;;6.32;100.00;98353.98;1728955;81;21028;-85
2022/01/04 02:52:27;;;;;;;3.58;2.37;;;;;;;6.34;100.00;98343.83;1696133;81;21516;-89
2022/01/04 02:54:55;;;;;;;2.58;1.82;;;;;;;6.35;100.00;98344.11;1701008;81;21943;-81
2022/01/04 02:57:22;;;;;;;3.27;2.62;;;;;;;6.33;100.00;98341.69;1758718;79;20940;-84
2022/01/04 02:59:48;;;;;;;4.53;1.75;;;;;;;6.32;99.67;98341.96;1749113;81;21544;-87
2022/01/04 03:02:16;;;;;;;4.22;2.40;;;;;;;6.31;99.51;98344.35;1742056;81;20984;-90
2022/01/04 03:04:43;;;;;;;3.37;2.10;;;;;;;6.32;99.34;98343.30;1725671;81;21032;-79
2022/01/04 03:07:10;;;;;;;2.80;2.12;;;;;;;6.33;99.17;98343.58;1713356;82;22192;-86
2022/01/04 03:09:38;;;;;;;4.50;2.50;;;;;;;6.36;99.08;98348.39;1691734;83;20959;-81
2022/01/04 03:12:06;;;;;;;3.42;2.35;;;;;;;6.36;98.76;98344.39;1764866;80;21018;-75
2022/01/04 03:14:34;;;;;;;4.20;2.55;;;;;;;6.35;98.61;98352.92;1739439;81;21097;-76
2022/01/04 03:17:02;;;;;;;2.58;2.02;;;;;;;6.33;98.48;98352.37;1696764;83;21541;-77
2022/01/04 03:19:28;;;;;;;3.72;2.17;;;;;;;6.32;98.39;98360.13;1738888;81;21752;-74
2022/01/04 03:21:54;;;;;;;4.25;2.27;;;;;;;6.33;98.39;98340.91;1696896;83;20996;-75
2022/01/04 03:24:22;;;;;;;3.10;1.85;;;;;;;6.31;98.30;98350.50;1729948;82;21648;-81
2022/01/04 03:26:49;;;;;;;3.35;2.45;;;;;;;6.35;98.36;98348.92;1752601;81;21028;-78
2022/01/04 03:29:16;;;;;;;4.58;2.83;;;;;;;6.37;98.02;98363.36;1725698;81;21579;-79
2022/01/04 03:31:43;;;;;;;2.70;1.95;;;;;;;6.37;97.74;98356.69;1750494;81;22139;-78
2022/01/04 03:34:10;;;;;;;2.50;2.30;;;;;;;6.33;97.40;98364.94;1740620;81;21033;-80
2022/01/04 03:36:37;;;;;;;1.92;1.82;;;;;;;6.31;97.23;98364.38;1751725;81;25512;-76
2022/01/04 03:39:07;;;;;;;2.60;1.95;;;;;;;6.30;97.16;98357.42;1754968;81;21613;-77
2022/01/04 03:41:38;;;;;;;3.98;2.25;;;;;;;6.30;97.12;98371.58;1759805;81;21037;-77
2022/01/04 03:44:08;;;;;;;3.25;2.05;;;;;;;6.30;96.98;98371.58;1759779;81;21153;-77
2022/01/04 03:46:34;;;;;;;3.12;2.08;;;;;;;6.32;96.86;98378.01;1691312;82;20987;-78
2022/01/04 03:49:00;;;;;;;2.17;1.98;;;;;;;6.32;96.67;98378.81;1741846;81;21549;-79
2022/01/04 03:51:27;;;;;;;3.22;2.30;;;;;;;6.32;96.58;98394.02;1751683;81;21042;-82
2022/01/04 03:53:53;;;;;;;3.92;2.67;;;;;;;6.32;96.50;98405.52;1699594;84;21566;-84
2022/01/04 03:56:19;;;;;;;5.85;2.60;;;;;;;6.31;96.20;98403.89;1695982;84;21879;-89
2022/01/04 03:58:47;;;;;;;3.12;2.00;;;;;;;6.30;96.02;98401.47;1694835;84;22202;-86
2022/01/04 04:01:14;;;;;;;3.12;1.98;;;;;;;6.30;95.95;98406.28;1759919;81;21491;-87
2022/01/04 04:03:40;;;;;;;2.70;1.90;;;;;;;6.31;95.81;98421.78;1706082;84;21005;-86
2022/01/04 04:06:07;;;;;;;3.22;1.90;;;;;;;6.30;95.69;98406.81;1698120;84;21100;-86
2022/01/04 04:08:35;;;;;;;2.25;1.72;;;;;;;6.30;95.60;98408.95;1688481;84;21110;-85
2022/01/04 04:11:01;;;;;;;2.75;1.77;;;;;;;6.29;95.52;98414.53;1744506;81;20984;-80
2022/01/04 04:13:28;;;;;;;2.10;1.85;;;;;;;6.27;95.51;98424.16;1727751;81;21055;-85
2022/01/04 04:15:55;;;;;;;3.12;1.80;;;;;;;6.26;95.52;98420.39;1757677;81;21543;-82
2022/01/04 04:18:21;;;;;;;6.03;1.60;;;;;;;6.25;95.57;98420.92;1706086;83;21577;-80
2022/01/04 04:20:49;;;;;;;6.05;2.15;;;;;;;6.25;95.60;98422.78;1681282;84;21782;-82
2022/01/04 04:23:18;;;;;;;3.10;1.87;;;;;;;6.25;95.68;98423.59;1702807;84;21684;-81
2022/01/04 04:25:44;;;;;;;3.72;1.87;;;;;;;6.25;95.72;98428.92;1660625;84;21023;-79
2022/01/04 04:28:12;;;;;;;4.95;1.80;;;;;;;6.23;95.88;98431.59;1695057;84;21074;-77
2022/01/04 04:30:40;;;;;;;2.00;1.72;;;;;;;6.18;96.11;98440.88;1700066;83;21054;-78
2022/01/04 04:33:06;;;;;;;2.33;2.00;;;;;;;6.12;96.42;98432.01;1710527;83;21211;-77
2022/01/04 04:35:34;;;;;;;1.55;1.45;;;;;;;6.09;96.79;98435.97;1702162;83;21059;-78
2022/01/04 04:38:01;;;;;;;3.98;1.70;;;;;;;6.08;97.26;98443.72;1690489;83;21550;-74
2022/01/04 04:40:28;;;;;;;5.78;2.08;;;;;;;6.07;97.53;98438.10;1703272;83;21095;-78
2022/01/04 04:42:54;;;;;;;3.87;1.72;;;;;;;6.05;97.78;98448.73;1682254;85;21587;-76
2022/01/04 04:45:21;;;;;;;3.87;1.77;;;;;;;6.02;97.95;98447.39;1692254;83;22255;-74
2022/01/04 04:47:49;;;;;;;2.22;1.85;;;;;;;6.01;98.23;98445.77;1710520;82;21091;-77
2022/01/04 04:50:15;;;;;;;2.22;1.72;;;;;;;6.02;98.40;98449.25;1710515;82;21603;-77
2022/01/04 04:52:42;;;;;;;3.17;2.58;;;;;;;6.03;98.57;98450.86;1683964;83;21806;-77
2022/01/04 04:55:09;;;;;;;5.92;1.50;;;;;;;6.00;98.80;98460.16;1701304;83;21005;-75
2022/01/04 04:57:40;;;;;;;4.95;2.15;;;;;;;6.00;99.03;98453.48;1681029;85;21052;-81
2022/01/04 05:00:08;;;;;;;4.80;1.87;;;;;;;6.02;99.25;98462.06;1689657;83;21123;-80
2022/01/04 05:02:37;;;;;;;4.00;1.60;;;;;;;6.02;99.53;98452.73;1721655;81;20981;-81
2022/01/04 05:05:05;;;;;;;3.55;2.47;;;;;;;6.03;99.57;98464.20;1761964;81;21013;-77
2022/01/04 05:07:34;;;;;;;5.65;2.00;;;;;;;5.99;99.73;98458.58;1702766;83;20936;-82
2022/01/04 05:10:05;;;;;;;2.33;1.93;;;;;;;5.98;99.79;98464.16;1710915;83;21492;-80
2022/01/04 05:12:33;;;;;;;10.83;2.43;;;;;;;5.96;100.00;98460.91;1696509;83;20948;-78
2022/01/04 05:15:00;;;;;;;3.80;2.22;;;;;;;5.96;100.00;98467.58;1710611;83;21025;-76
2022/01/04 05:17:28;;;;;;;2.17;1.70;;;;;;;5.94;100.00;98459.04;1703422;82;21010;-77
2022/01/04 05:19:57;;;;;;;2.55;1.85;;;;;;;5.95;100.00;98458.77;1680441;84;21018;-79
2022/01/04 05:22:23;;;;;;;2.72;1.95;;;;;;;5.95;100.00;98471.30;1672426;85;21064;-78
2022/01/04 05:24:50;;;;;;;3.17;2.65;;;;;;;5.95;100.00;98476.11;1680472;84;21010;-78
2022/01/04 05:27:17;;;;;;;1.87;1.60;;;;;;;5.93;100.00;98466.23;1663068;85;21028;-78
2022/01/04 05:29:43;;;;;;;4.92;2.20;;;;;;;5.94;100.00;98470.52;1710576;83;21511;-79
2022/01/04 05:32:10;;;;;;;2.62;1.87;;;;;;;5.93;100.00;98476.91;1688009;83;21043;-83
2022/01/04 05:34:37;;;;;;;4.20;2.70;;;;;;;5.92;100.00;98473.15;1715439;83;21133;-78
2022/01/04 05:37:04;;;;;;;2.75;2.15;;;;;;;5.94;100.00;98476.38;1715736;83;21321;-81
2022/01/04 05:39:33;;;;;;;2.80;1.87;;;;;;;5.95;100.00;98484.13;1682178;83;21573;-80
2022/01/04 05:42:00;;;;;;;3.33;1.90;;;;;;;5.93;100.00;98486.77;1715601;83;21009;-80
2022/01/04 05:44:26;;;;;;;4.62;3.15;;;;;;;5.90;100.00;98485.39;1715189;83;21040;-81
2022/01/04 05:46:53;;;;;;;3.22;1.82;;;;;;;5.93;100.00;98483.58;1676454;85;21089;-80
2022/01/04 05:49:21;;;;;;;3.50;2.00;;;;;;;5.93;100.00;98478.24;1714769;83;21044;-80
2022/01/04 05:51:47;;;;;;;4.40;2.40;;;;;;;5.95;100.00;98487.31;1685177;84;21054;-81
2022/01/04 05:54:14;;;;;;;2.77;2.42;;;;;;;5.97;100.00;98498.56;1714597;83;20958;-79
2022/01/04 05:56:41;;;;;;;5.15;2.55;;;;;;;5.98;100.00;98500.98;1707152;83;21021;-80
2022/01/04 05:59:08;;;;;;;2.85;2.08;;;;;;;5.99;100.00;98507.94;1669454;83;21052;-85
2022/01/04 06:01:34;;;;;;;4.47;2.35;;;;;;;6.00;100.00;98512.20;1706879;83;20917;-80
2022/01/04 06:04:01;;;;;;;3.40;2.12;;;;;;;6.00;100.00;98510.05;1714984;83;20991;-76
2022/01/04 06:06:27;;;;;;;2.80;2.60;;;;;;;5.99;100.00;98508.47;1715388;83;21328;-77
2022/01/04 06:08:54;;;;;;;3.08;2.77;;;;;;;5.98;100.00;98506.84;1715495;82;21047;-78
2022/01/04 06:14:50;;;;;;;6.90;2.60;;;;;;;6.01;100.00;98509.01;1715044;83;21108;-75
2022/01/04 06:16:45;;;;;;;3.10;2.90;;;;;;;6.04;100.00;98509.30;1710261;82;20977;-82
2022/01/04 06:19:13;;;;;;;3.35;2.70;;;;;;;6.06;100.00;98518.41;1701600;83;21572;-78
2022/01/04 06:21:39;;;;;;;6.87;4.50;;;;;;;6.05;100.00;98534.95;1658768;85;21099;-77
2022/01/04 06:24:05;;;;;;;5.55;2.55;;;;;;;6.06;100.00;98531.75;1672342;83;21131;-79
2022/01/04 06:26:33;;;;;;;5.12;3.05;;;;;;;6.04;100.00;98525.88;1697026;83;21670;-80
2022/01/04 06:29:00;;;;;;;3.80;3.15;;;;;;;6.04;100.00;98538.66;1715573;83;21020;-79
2022/01/04 06:31:27;;;;;;;4.47;3.17;;;;;;;6.05;100.00;98532.28;1714108;83;21053;-78
2022/01/04 06:33:54;;;;;;;4.28;3.15;;;;;;;6.08;100.00;98536.33;1702419;83;21135;-76
2022/01/04 06:36:20;;;;;;;5.87;3.50;;;;;;;6.12;100.00;98531.58;1689907;83;21713;-74
2022/01/04 06:38:47;;;;;;;6.25;3.25;;;;;;;6.14;100.00;98529.97;1696121;83;21008;-84
2022/01/04 06:41:13;;;;;;;5.53;3.47;;;;;;;6.13;100.00;98531.05;1692500;83;20958;-81
2022/01/04 06:43:40;;;;;;;5.62;4.60;;;;;;;6.14;100.00;98543.31;1683233;83;21032;-80
2022/01/04 06:46:08;;;;;;;3.75;3.37;;;;;;;6.15;100.00;98547.61;1698974;83;21105;-80
2022/01/04 06:48:34;;;;;;;5.78;3.65;;;;;;;6.17;100.00;98544.70;1667926;84;21092;-79
2022/01/04 06:51:02;;;;;;;4.50;3.55;;;;;;;6.17;100.00;98546.03;1689576;84;21030;-80
2022/01/04 06:53:29;;;;;;;4.65;3.60;;;;;;;6.18;100.00;98548.98;1692376;84;21026;-79
2022/01/04 06:55:55;;;;;;;5.25;4.12;;;;;;;6.19;100.00;98542.59;1674342;85;21532;-78
2022/01/04 06:58:22;;;;;;;4.50;3.80;;;;;;;6.18;100.00;98544.46;1675374;84;21016;-79
2022/01/04 07:00:49;;;;;;;4.75;4.33;;;;;;;6.19;100.00;98544.72;1716159;82;21523;-80
2022/01/04 07:03:16;;;;;;;4.47;4.08;;;;;;;6.20;100.00;98558.34;1687556;83;20974;-79
2022/01/04 07:05:42;;;;;;;4.03;3.62;;;;;;;6.20;100.00;98547.67;1710577;83;21054;-78
2022/01/04 07:08:10;;;;;;;4.60;3.83;;;;;;;6.22;100.00;98566.11;1712344;83;21053;-77
2022/01/04 07:10:37;;;;;;;4.37;3.98;;;;;;;6.24;100.00;98562.65;1699609;81;21568;-79
2022/01/04 07:13:04;;;;;;;4.37;3.98;;;;;;;6.24;100.00;98572.80;1653036;85;21101;-76
2022/01/04 07:15:31;;;;;;;6.35;4.85;;;;;;;6.27;100.00;98566.17;1662103;85;21061;-78
2022/01/04 07:17:57;;;;;;;7.20;5.05;;;;;;;6.31;100.00;98556.61;1682075;85;22156;-79
2022/01/04 07:20:23;;;;;;;6.67;5.12;;;;;;;6.31;100.00;98561.42;1663696;85;21025;-83
2022/01/04 07:22:50;;;;;;;6.05;5.25;;;;;;;6.32;100.00;98564.38;1682234;83;20983;-86
2022/01/04 07:25:18;;;;;;;6.90;4.45;;;;;;;6.33;100.00;98556.62;1682150;85;21133;-84
2022/01/04 07:27:44;;;;;;;7.28;5.08;;;;;;;6.32;100.00;98563.05;1682330;85;21065;-83
2022/01/04 07:30:12;;;;;;;6.22;4.97;;;;;;;6.36;100.00;98566.83;1673803;83;21050;-81
2022/01/04 07:32:38;;;;;;;4.97;4.37;;;;;;;6.39;100.00;98556.16;1614590;86;21027;-85
2022/01/04 07:35:08;;;;;;;5.12;4.67;;;;;;;6.41;100.00;98566.07;1689104;83;21067;-86
2022/01/04 07:37:35;;;;;;;5.10;4.60;;;;;;;6.44;100.00;98569.56;1692765;84;21305;-88
2022/01/04 07:40:03;;;;;;;5.72;4.92;;;;;;;6.44;100.00;98570.90;1710753;83;20963;-88
2022/01/04 07:42:31;;;;;;;5.75;4.60;;;;;;;6.44;100.00;98570.90;1689456;83;20955;-80
2022/01/04 07:44:57;;;;;;;7.20;5.37;;;;;;;6.45;100.00;98592.02;1686002;83;21531;-87
2022/01/04 07:47:26;;;;;;;6.50;4.70;;;;;;;6.46;99.91;98576.81;1708815;83;21026;-86
2022/01/04 07:49:54;;;;;;;5.50;4.60;;;;;;;6.49;99.76;98574.96;1692971;84;21152;-87
2022/01/04 07:52:23;;;;;;;6.42;4.60;;;;;;;6.52;99.59;98575.27;1677065;84;21067;-86
2022/01/04 07:54:53;;;;;;;5.90;4.70;;;;;;;6.54;99.12;98575.02;1711459;83;20951;-93
2022/01/04 07:57:21;;;;;;;5.45;4.90;;;;;;;6.51;98.76;98562.98;1693587;83;20923;-89
2022/01/04 07:59:50;;;;;;;8.85;7.97;;;;;;;6.52;98.57;98578.48;1663839;85;21469;-88
2022/01/04 08:02:18;;;;;;;7.78;5.55;;;;;;;6.53;98.48;98574.20;1710625;83;22104;-86
2022/01/04 08:04:44;;;;;;;6.50;5.60;;;;;;;6.55;98.27;98573.44;1711019;83;20915;-86
2022/01/04 08:07:11;;;;;;;10.43;6.28;;;;;;;6.56;98.04;98583.08;1697511;83;21022;-86
2022/01/04 08:09:43;;;;;;;7.08;4.92;;;;;;;6.59;97.97;98573.74;1669765;83;21277;-86
2022/01/04 08:12:10;;;;;;;8.95;6.17;;;;;;;6.60;97.76;98578.03;1689643;84;21090;-87
2022/01/04 08:14:37;;;;;;;6.20;5.35;;;;;;;6.62;97.51;98580.46;1681829;84;21209;-87
2022/01/04 08:17:06;;;;;;;7.53;5.03;;;;;;;6.60;97.27;98582.04;1687568;84;21060;-79
2022/01/04 08:19:34;;;;;;;5.58;4.87;;;;;;;6.62;97.32;98585.80;1637520;84;21024;-85
2022/01/04 08:22:03;;;;;;;6.15;5.35;;;;;;;6.64;96.99;98588.48;1691757;84;21639;-85
2022/01/04 08:24:33;;;;;;;5.58;4.72;;;;;;;6.68;96.90;98593.60;1749454;81;20972;-82
2022/01/04 08:27:02;;;;;;;8.40;5.58;;;;;;;6.69;96.24;98583.72;1721441;82;21895;-82
2022/01/04 08:29:30;;;;;;;7.20;4.87;;;;;;;6.70;96.16;98586.68;1684909;85;21541;-85
2022/01/04 08:32:02;;;;;;;6.62;5.12;;;;;;;6.71;96.09;98593.12;1700263;83;21084;-84
2022/01/04 08:34:30;;;;;;;7.22;4.62;;;;;;;6.75;96.04;98592.89;1762436;80;21456;-83
2022/01/04 08:36:58;;;;;;;5.17;4.50;;;;;;;6.79;95.76;98587.84;1761610;81;21060;-82
2022/01/04 08:39:26;;;;;;;4.35;3.95;;;;;;;6.83;95.60;98591.09;1767621;81;21109;-82
2022/01/04 08:41:55;;;;;;;6.80;4.78;;;;;;;6.88;95.15;98599.69;1765947;81;21027;-83
2022/01/04 08:44:22;;;;;;;7.62;4.42;;;;;;;6.93;94.68;98586.38;1756591;81;20939;-89
2022/01/04 08:46:50;;;;;;;6.15;4.75;;;;;;;6.96;94.37;98580.51;1675013;83;21579;-85
2022/01/04 08:49:17;;;;;;;7.80;6.05;;;;;;;6.98;94.14;98593.11;1707702;83;21007;-81
2022/01/04 08:51:43;;;;;;;9.00;7.25;;;;;;;6.98;93.60;98585.09;1685449;85;21548;-83
2022/01/04 08:54:11;;;;;;;5.00;4.53;;;;;;;6.97;92.96;98580.80;1715591;83;21527;-83
2022/01/04 08:56:43;;;;;;;7.10;4.05;;;;;;;6.97;92.46;98588.28;1687701;83;21022;-84
2022/01/04 08:59:13;;;;;;;6.70;4.90;;;;;;;7.02;92.58;98584.84;1656999;86;21084;-84
2022/01/04 09:01:48;;;;;;;4.45;4.03;;;;;;;7.08;92.10;98577.69;1686239;85;21079;-85
2022/01/04 09:04:19;;;;;;;8.03;5.22;;;;;;;7.14;92.03;98580.69;1706781;83;21233;-88
2022/01/04 09:06:55;;;;;;;5.35;4.15;;;;;;;7.20;91.62;98605.05;1696115;83;21064;-85
2022/01/04 09:09:21;;;;;;;;;;;;;;;7.20;90.42;98592.48;1677336;84;20981;-89
2022/01/04 09:11:52;;;;;;;4.20;3.75;;;;;;;7.22;89.89;98599.73;1697478;83;20768;-88
2022/01/04 09:19:31;;;;;;;5.28;4.25;;;;;;;7.34;88.49;98611.59;1719863;81;20993;-81
2022/01/04 09:21:57;;;;;;;4.72;4.12;;;;;;;7.36;87.15;98598.78;1768088;81;21048;-83
2022/01/04 09:24:24;;;;;;;5.30;4.22;;;;;;;7.36;86.95;98612.15;1717518;83;20992;-85
2022/01/04 09:26:52;;;;;;;9.40;4.30;;;;;;;7.34;86.80;98624.43;1685886;85;21335;-84
2022/01/04 09:29:19;;;;;;;6.10;3.33;;;;;;;7.32;85.76;98621.75;1697363;83;21137;-84
2022/01/04 09:31:53;;;;;;;8.43;4.37;;;;;;;7.30;86.00;98627.34;1715717;83;21072;-85
2022/01/04 09:34:19;;;;;;;;;;;;;;;7.30;86.27;98616.64;1699490;83;21057;-84
2022/01/04 09:36:47;;;;;;;6.87;3.60;;;;;;;7.32;86.21;98625.76;1715499;83;20105;-87
2022/01/04 09:39:18;;;;;;;5.42;3.62;;;;;;;7.30;85.57;98623.86;1702781;82;20947;-90
2022/01/04 09:41:45;;;;;;;3.83;3.20;;;;;;;7.23;85.24;98631.30;1689862;83;21228;-83
2022/01/04 09:44:13;;;;;;;5.50;3.90;;;;;;;7.18;85.03;98617.36;1696622;83;21565;-85
2022/01/04 09:46:40;;;;;;;7.30;3.55;;;;;;;7.14;84.90;98618.12;1715573;83;20990;-82
2022/01/04 09:49:14;;;;;;;8.05;4.55;;;;;;;7.14;85.29;98633.63;1715870;82;21070;-83
2022/01/04 09:51:44;;;;;;;6.25;4.08;;;;;;;7.14;84.81;98628.81;1707447;83;21060;-80
2022/01/04 09:54:20;;;;;;;5.55;3.55;;;;;;;7.15;84.98;98627.20;1718198;82;21102;-85
2022/01/04 09:56:49;;;;;;;4.60;3.72;;;;;;;7.17;85.02;98637.66;1715066;83;21006;-87
2022/01/04 09:59:22;;;;;;;5.30;3.77;;;;;;;7.15;84.61;98633.08;1715712;83;20948;-83
2022/01/04 10:02:00;;;;;;;6.72;3.75;;;;;;;7.09;84.53;98637.59;1713379;82;21009;-77
2022/01/04 10:04:23;;;;;;;10.23;4.53;;;;;;;7.08;84.79;98630.63;1709768;83;21169;-81
2022/01/04 10:07:02;;;;;;;;;;;;;;;7.08;84.88;98630.63;1708409;83;21015;-77
2022/01/04 10:09:52;;;;;;;7.28;3.95;;;;;;;7.09;84.85;98639.45;1712180;83;20208;-88
2022/01/04 10:13:05;;;;;;;5.12;3.62;;;;;;;7.09;84.86;98630.91;1679263;85;21011;-88
2022/01/04 10:15:47;;;;;;;4.78;3.50;;;;;;;7.05;84.83;98626.33;1712124;83;21042;-77
2022/01/04 10:18:21;;;;;;;5.22;4.10;;;;;;;7.02;85.06;98628.95;1764775;79;21006;-79
2022/01/04 10:20:53;;;;;;;;;;;;;;;7.02;85.29;98627.62;1716171;83;21245;-84
2022/01/04 10:23:23;;;;;;;12.53;5.12;;;;;;;7.05;85.47;98624.98;1684753;85;20112;-81
2022/01/04 10:25:51;;;;;;;8.40;4.80;;;;;;;7.09;85.59;98630.09;1716497;83;21016;-79
2022/01/04 10:28:39;;;;;;;10.13;5.95;;;;;;;7.12;85.47;98624.23;1715255;83;21051;-80
2022/01/04 10:31:15;;;;;;;11.08;5.53;;;;;;;7.14;85.52;98621.59;1685584;84;21021;-87
2022/01/04 10:33:43;;;;;;;10.68;5.42;;;;;;;7.14;85.42;98626.95;1683169;83;21023;-86
2022/01/04 10:36:12;;;;;;;6.12;4.25;;;;;;;7.17;85.51;98622.95;1744819;81;21049;-86
2022/01/04 10:38:46;;;;;;;7.92;4.45;;;;;;;7.19;84.91;98634.20;1736932;81;21056;-86
2022/01/04 10:41:25;;;;;;;12.10;6.37;;;;;;;7.19;84.71;98634.20;1717005;81;21040;-86
2022/01/04 10:43:59;;;;;;;7.72;4.35;;;;;;;7.18;84.07;98638.75;1762920;81;21509;-84
2022/01/04 10:46:42;;;;;;;8.48;4.28;;;;;;;7.17;83.68;98639.80;1694689;83;21520;-84
2022/01/04 10:49:18;;;;;;;5.67;3.87;;;;;;;7.15;83.31;98643.24;1668817;86;21040;-86
2022/01/04 10:51:48;;;;;;;4.87;4.08;;;;;;;7.12;83.29;98642.42;1676753;85;21039;-86
2022/01/04 10:54:20;;;;;;;7.05;4.37;;;;;;;7.12;83.06;98648.30;1679161;84;20988;-83
2022/01/04 10:56:48;;;;;;;7.60;4.60;;;;;;;7.10;82.97;98637.84;1675152;84;21064;-85
2022/01/04 10:59:20;;;;;;;8.08;5.15;;;;;;;7.11;82.81;98634.64;1678678;84;20983;-85
2022/01/04 11:01:51;;;;;;;7.25;4.10;;;;;;;7.13;82.70;98639.22;1632643;84;21063;-86
2022/01/04 11:04:19;;;;;;;10.32;4.42;;;;;;;7.13;82.53;98632.54;1667381;85;21068;-85
2022/01/04 11:06:49;;;;;;;6.83;4.85;;;;;;;7.14;82.70;98633.63;1713115;83;20968;-90
2022/01/04 11:09:19;;;;;;;7.72;4.58;;;;;;;7.18;82.71;98631.25;1713396;83;21032;-88
2022/01/04 11:11:47;;;;;;;12.60;5.22;;;;;;;7.22;82.66;98628.34;1697533;83;20980;-89
2022/01/04 11:14:18;;;;;;;14.05;5.12;;;;;;;7.25;81.98;98623.81;1729566;81;20973;-85
2022/01/04 11:16:47;;;;;;;5.50;4.45;;;;;;;7.25;81.54;98629.16;1669895;83;21064;-84
2022/01/04 11:19:15;;;;;;;7.45;5.25;;;;;;;7.26;81.60;98628.91;1735785;82;20992;-87
2022/01/04 11:21:46;;;;;;;9.58;4.58;;;;;;;7.26;81.53;98631.59;1711685;82;21034;-85
2022/01/04 11:24:16;;;;;;;8.25;4.17;;;;;;;7.25;81.04;98633.98;1717538;81;21057;-88
2022/01/04 11:26:48;;;;;;;5.85;4.08;;;;;;;7.25;80.88;98623.28;1698356;83;22168;-84
2022/01/04 11:29:18;;;;;;;8.00;3.67;;;;;;;7.27;80.73;98633.73;1765868;80;21015;-83
2022/01/04 11:32:09;;;;;;;5.15;3.87;;;;;;;7.28;80.26;98635.36;1721635;80;21020;-84
2022/01/04 11:35:19;;;;;;;7.75;4.15;;;;;;;7.28;79.52;98635.36;1685235;84;21874;-86
2022/01/04 11:37:57;;;;;;;7.03;3.95;;;;;;;7.29;78.51;98651.69;1693041;84;20979;-90
2022/01/04 11:40:38;;;;;;;8.08;4.30;;;;;;;7.23;78.18;98654.03;1679461;84;20949;-86
2022/01/04 11:43:26;;;;;;;9.00;4.62;;;;;;;7.20;77.66;98653.17;1713068;83;21026;-84
2022/01/04 11:45:54;;;;;;;7.60;3.80;;;;;;;7.18;77.85;98656.66;1709422;82;21533;-88
2022/01/04 11:48:40;;;;;;;6.42;3.33;;;;;;;7.17;77.97;98644.34;1710784;83;21008;-77
2022/01/04 11:51:34;;;;;;;8.03;4.17;;;;;;;7.18;78.07;98653.45;1685819;84;21152;-91
2022/01/04 11:54:20;;;;;;;8.90;5.00;;;;;;;7.20;77.95;98653.17;1709517;83;20981;-85
2022/01/04 11:56:59;;;;;;;9.95;4.17;;;;;;;7.21;77.95;98648.11;1642860;85;21024;-81
2022/01/04 11:59:39;;;;;;;6.03;4.05;;;;;;;7.23;77.85;98649.48;1710443;83;21024;-78